Time;durP1;ratioP1;P1;durP2;ratioP2;P2;SDS_P1;SDS_P2;PMS_P1;PMS_P2;Temp;Humidity;BMP_temperature;BMP_pressure;BME280_temperature;BME280_humidity;BME280_pressure;Samples;Min_cycle;Max_cycle;Signal;HPM_P1;HPM_P2
2023/05/02 00:01:40;;;;;;;31.45;17.65;;;;;;;11.24;100.00;101819.69;5124661;27;20363;-74
2023/05/02 00:04:06;;;;;;;31.65;18.27;;;;;;;11.32;100.00;101831.31;5122415;27;20127;-72
2023/05/02 00:06:32;;;;;;;31.75;18.50;;;;;;;11.33;100.00;101833.09;5124350;27;20393;-75
2023/05/02 00:08:57;;;;;;;31.90;18.75;;;;;;;11.32;100.00;101831.31;5122191;27;20027;-75
2023/05/02 00:11:23;;;;;;;31.77;18.80;;;;;;;11.39;100.00;101833.19;5124660;27;20497;-75
2023/05/02 00:13:49;;;;;;;34.00;19.17;;;;;;;11.36;100.00;101838.44;5123293;27;20046;-72
2023/05/02 00:16:14;;;;;;;31.70;18.90;;;;;;;11.30;100.00;101835.66;5121861;27;20055;-72
2023/05/02 00:18:39;;;;;;;31.70;18.40;;;;;;;11.28;100.00;101842.69;5124130;27;20027;-73
2023/05/02 00:21:06;;;;;;;29.95;17.85;;;;;;;11.34;100.00;101849.00;5121981;27;20390;-71
2023/05/02 00:23:31;;;;;;;31.98;18.60;;;;;;;11.39;100.00;101846.44;5124153;27;20074;-72
2023/05/02 00:25:56;;;;;;;33.03;19.13;;;;;;;11.37;100.00;101848.13;5122230;27;20431;-74
2023/05/02 00:28:22;;;;;;;31.65;18.90;;;;;;;11.37;100.00;101849.91;5124183;27;20033;-73
2023/05/02 00:30:47;;;;;;;33.28;19.13;;;;;;;11.29;100.00;101855.06;5123765;27;20035;-73
2023/05/02 00:33:14;;;;;;;33.10;20.48;;;;;;;11.27;100.00;101862.06;5122226;27;20509;-74
2023/05/02 00:35:40;;;;;;;34.72;19.95;;;;;;;11.25;100.00;101853.22;5124420;27;20031;-67
2023/05/02 00:38:06;;;;;;;33.90;20.35;;;;;;;11.30;100.00;101862.13;5121892;27;20032;-65
2023/05/02 00:40:41;;;;;;;33.40;19.85;;;;;;;11.24;100.00;101862.94;5125320;27;20386;-67
2023/05/02 00:43:06;;;;;;;34.80;20.98;;;;;;;11.26;100.00;101860.31;5122076;28;20032;-65
2023/05/02 00:45:32;;;;;;;31.75;17.88;;;;;;;11.25;100.00;101858.53;5125124;27;20046;-67
2023/05/02 00:47:57;;;;;;;31.48;18.65;;;;;;;11.16;100.00;101865.44;5121817;27;20028;-66
2023/05/02 00:50:26;;;;;;;31.40;17.98;;;;;;;11.16;100.00;101876.00;5124119;28;20391;-65
2023/05/02 00:52:54;;;;;;;31.42;17.77;;;;;;;11.10;100.00;101862.69;5122584;27;20035;-70
2023/05/02 00:55:19;;;;;;;31.83;18.35;;;;;;;11.08;100.00;101859.13;5122434;28;20034;-66
2023/05/02 00:57:44;;;;;;;32.25;18.60;;;;;;;11.07;100.00;101867.91;5123519;27;20023;-66
2023/05/02 01:00:11;;;;;;;32.40;18.30;;;;;;;11.07;100.00;101882.91;5122210;28;20107;-70
2023/05/02 01:02:50;;;;;;;32.08;18.85;;;;;;;11.04;100.00;101867.88;5124757;27;20035;-66
2023/05/02 01:05:32;;;;;;;31.77;18.15;;;;;;;11.04;100.00;101878.44;5122852;28;20020;-68
2023/05/02 01:08:22;;;;;;;31.10;17.95;;;;;;;11.18;100.00;101869.88;5121627;27;20020;-66
2023/05/02 01:11:14;;;;;;;30.23;17.27;;;;;;;11.03;100.00;101873.13;5123677;28;20024;-66
2023/05/02 01:13:42;;;;;;;32.08;17.67;;;;;;;11.04;100.00;101872.25;5121904;28;20039;-66
2023/05/02 01:16:10;;;;;;;30.98;17.52;;;;;;;10.97;100.00;101873.91;5124437;27;20035;-68
2023/05/02 01:18:39;;;;;;;30.83;17.70;;;;;;;10.91;100.00;101881.72;5121383;28;20479;-66
2023/05/02 01:21:09;;;;;;;29.38;16.02;;;;;;;10.89;100.00;101872.84;5124937;27;20035;-68
2023/05/02 01:23:50;;;;;;;28.50;14.80;;;;;;;10.76;100.00;101872.63;5121140;28;20031;-70
2023/05/02 01:26:36;;;;;;;26.38;13.27;;;;;;;10.69;100.00;101876.00;5122664;28;20027;-69
2023/05/02 01:29:07;;;;;;;25.23;12.40;;;;;;;10.55;100.00;101872.19;5121204;28;20023;-70
2023/05/02 01:31:40;;;;;;;25.08;12.05;;;;;;;10.40;100.00;101872.75;5123827;27;20059;-66
2023/05/02 01:34:11;;;;;;;25.20;11.88;;;;;;;10.40;100.00;101873.63;5124880;27;20047;-67
2023/05/02 01:36:42;;;;;;;23.85;11.30;;;;;;;10.28;100.00;101873.31;5128606;27;20023;-66
2023/05/02 01:39:10;;;;;;;24.17;11.45;;;;;;;10.12;100.00;101867.72;5125241;27;20023;-67
2023/05/02 01:41:37;;;;;;;23.65;10.80;;;;;;;10.11;100.00;101881.78;5128421;27;20023;-68
2023/05/02 01:44:04;;;;;;;23.83;11.07;;;;;;;9.97;100.00;101872.63;5125031;27;20019;-67
2023/05/02 01:46:35;;;;;;;23.88;10.70;;;;;;;9.95;100.00;101885.81;5128198;27;20027;-65
2023/05/02 01:49:04;;;;;;;23.98;11.15;;;;;;;9.90;100.00;101886.56;5124741;27;20020;-66
2023/05/02 01:51:34;;;;;;;24.90;11.00;;;;;;;9.94;100.00;101883.13;5126700;27;20118;-65
2023/05/02 01:54:04;;;;;;;24.10;11.50;;;;;;;9.98;100.00;101885.00;5124999;27;20482;-68
2023/05/02 01:56:32;;;;;;;25.05;12.07;;;;;;;9.97;100.00;101896.41;5127933;27;20120;-68
2023/05/02 01:58:59;;;;;;;25.42;12.25;;;;;;;9.94;100.00;101886.66;5124887;27;20023;-69
2023/05/02 02:01:27;;;;;;;23.38;11.07;;;;;;;10.02;100.00;101894.78;5127261;27;20031;-66
2023/05/02 02:03:57;;;;;;;24.58;11.85;;;;;;;10.09;100.00;101893.16;5125721;27;20034;-66
2023/05/02 02:06:23;;;;;;;26.35;11.68;;;;;;;10.05;100.00;101900.13;5126841;27;20039;-67
2023/05/02 02:08:49;;;;;;;24.60;12.13;;;;;;;10.09;100.00;101901.09;5126183;27;20035;-68
2023/05/02 02:11:21;;;;;;;25.60;12.13;;;;;;;10.08;100.00;101910.78;5125527;27;20076;-67
2023/05/02 02:13:51;;;;;;;26.27;12.43;;;;;;;10.12;100.00;101904.72;5126143;27;20031;-66
2023/05/02 02:16:27;;;;;;;26.10;12.40;;;;;;;10.13;100.00;101910.88;5125745;27;20558;-66
2023/05/02 02:18:56;;;;;;;25.98;12.35;;;;;;;10.12;100.00;101910.00;5125638;27;20102;-66
2023/05/02 02:21:24;;;;;;;25.08;12.02;;;;;;;10.12;100.00;101919.69;5126626;27;20102;-67
2023/05/02 02:23:52;;;;;;;25.25;13.02;;;;;;;9.98;100.00;101918.47;5125604;27;20533;-65
2023/05/02 02:26:20;;;;;;;25.33;12.80;;;;;;;9.99;100.00;101923.78;5126013;27;20116;-66
2023/05/02 02:28:46;;;;;;;25.77;12.77;;;;;;;9.96;100.00;101921.06;5126785;27;20110;-67
2023/05/02 02:31:12;;;;;;;27.40;13.63;;;;;;;10.02;100.00;101928.22;5124819;27;20092;-69
2023/05/02 02:33:37;;;;;;;26.10;12.95;;;;;;;10.09;100.00;101924.88;5125885;27;20048;-71
2023/05/02 02:36:11;;;;;;;25.83;13.02;;;;;;;10.05;100.00;101929.19;5123913;27;20055;-66
2023/05/02 02:38:44;;;;;;;26.48;13.45;;;;;;;10.05;100.00;101933.59;5123924;27;20051;-67
2023/05/02 02:41:26;;;;;;;26.05;13.18;;;;;;;10.04;100.00;101930.03;5126127;27;20035;-67
2023/05/02 02:44:01;;;;;;;27.27;13.50;;;;;;;10.07;100.00;101930.13;5125994;27;20034;-66
2023/05/02 02:46:47;;;;;;;26.52;13.45;;;;;;;10.15;100.00;101930.31;5124646;27;20047;-66
2023/05/02 02:49:21;;;;;;;26.20;13.63;;;;;;;10.15;100.00;101937.31;5124750;27;20023;-66
2023/05/02 02:51:57;;;;;;;26.65;13.60;;;;;;;10.09;100.00;101935.44;5125565;27;20031;-66
2023/05/02 02:54:32;;;;;;;27.40;13.60;;;;;;;10.19;100.00;101934.78;5125744;27;20024;-66
2023/05/02 02:57:03;;;;;;;26.88;13.90;;;;;;;10.15;100.00;101934.69;5123948;27;20032;-66
2023/05/02 02:59:33;;;;;;;25.45;13.77;;;;;;;10.16;100.00;101939.13;5126562;27;20106;-66
2023/05/02 03:02:11;;;;;;;27.95;14.57;;;;;;;10.15;100.00;101946.16;5123843;27;20027;-67
2023/05/02 03:04:40;;;;;;;25.90;14.80;;;;;;;10.16;100.00;101954.97;5123819;27;20449;-67
2023/05/02 03:07:07;;;;;;;27.70;14.52;;;;;;;10.18;100.00;101951.53;5126685;27;20026;-69
2023/05/02 03:09:46;;;;;;;26.38;14.50;;;;;;;10.19;100.00;101953.28;5123128;27;20034;-67
2023/05/02 03:12:12;;;;;;;25.80;14.65;;;;;;;10.17;100.00;101960.28;5123065;27;20028;-67
2023/05/02 03:14:38;;;;;;;26.80;13.52;;;;;;;10.23;100.00;101964.84;5123522;27;20500;-66
2023/05/02 03:17:04;;;;;;;27.60;14.70;;;;;;;10.18;100.00;101966.47;5126494;27;20027;-66
2023/05/02 03:19:29;;;;;;;26.27;13.65;;;;;;;10.19;100.00;101970.91;5123315;27;20084;-67
2023/05/02 03:21:55;;;;;;;25.27;13.88;;;;;;;10.23;100.00;101970.13;5125860;27;20042;-66
2023/05/02 03:24:20;;;;;;;27.05;13.73;;;;;;;10.12;100.00;101969.88;5124375;27;20084;-67
2023/05/02 03:26:46;;;;;;;26.63;13.35;;;;;;;10.09;100.00;101977.69;5124350;27;20534;-67
2023/05/02 03:29:13;;;;;;;25.83;13.55;;;;;;;10.07;100.00;101979.44;5125498;27;20031;-68
2023/05/02 03:31:38;;;;;;;25.65;13.90;;;;;;;10.03;100.00;101986.41;5122796;27;20493;-71
2023/05/02 03:34:03;;;;;;;26.40;13.48;;;;;;;10.13;100.00;101984.84;5126190;27;20051;-65
2023/05/02 03:36:29;;;;;;;25.80;13.27;;;;;;;10.11;100.00;101982.19;5123021;27;20023;-66
2023/05/02 03:38:54;;;;;;;25.13;13.35;;;;;;;10.15;100.00;101977.88;5125083;27;20023;-68
2023/05/02 03:41:20;;;;;;;25.52;13.40;;;;;;;10.12;100.00;101977.81;5124356;27;20031;-65
2023/05/02 03:43:45;;;;;;;25.60;13.35;;;;;;;10.11;100.00;101978.66;5123826;27;20482;-68
2023/05/02 03:46:11;;;;;;;27.27;13.48;;;;;;;10.11;100.00;101979.53;5125286;27;20039;-67
2023/05/02 03:48:36;;;;;;;26.02;12.80;;;;;;;10.15;100.00;101974.31;5122616;27;20112;-69
2023/05/02 03:51:04;;;;;;;26.90;12.80;;;;;;;10.19;100.00;101984.13;5122685;27;20488;-69
2023/05/02 03:53:32;;;;;;;24.08;11.68;;;;;;;10.12;100.00;101983.09;5124595;27;20031;-67
2023/05/02 03:55:58;;;;;;;24.58;11.65;;;;;;;10.11;100.00;101997.16;5123027;27;20034;-68
2023/05/02 03:58:24;;;;;;;25.48;10.70;;;;;;;10.12;100.00;101997.19;5124544;27;20023;-66
2023/05/02 04:00:51;;;;;;;23.67;10.05;;;;;;;10.03;100.00;102002.25;5123951;27;20072;-66
2023/05/02 04:03:17;;;;;;;23.45;9.25;;;;;;;10.04;100.00;102001.38;5123562;27;20054;-69
2023/05/02 04:05:42;;;;;;;22.95;8.90;;;;;;;10.02;100.00;102016.31;5125045;27;20031;-66
2023/05/02 04:08:08;;;;;;;22.20;8.90;;;;;;;9.98;100.00;102013.56;5122222;27;20132;-68
2023/05/02 04:10:34;;;;;;;22.60;9.63;;;;;;;9.88;100.00;102015.94;5125786;27;20110;-67
2023/05/02 04:13:01;;;;;;;20.77;8.40;;;;;;;9.93;100.00;102013.41;5122191;27;20115;-66
2023/05/02 04:15:27;;;;;;;22.63;9.32;;;;;;;9.93;100.00;102024.88;5124815;27;20066;-66
2023/05/02 04:17:52;;;;;;;23.45;8.98;;;;;;;9.97;100.00;102025.84;5123196;27;20410;-66
2023/05/02 04:20:18;;;;;;;23.42;8.82;;;;;;;9.90;100.00;102023.91;5123380;27;20552;-66
2023/05/02 04:22:46;;;;;;;21.17;8.00;;;;;;;9.91;100.00;102034.50;5124345;27;20521;-67
2023/05/02 04:25:11;;;;;;;22.50;7.78;;;;;;;9.88;100.00;102033.53;5122564;27;20381;-66
2023/05/02 04:27:37;;;;;;;23.67;7.00;;;;;;;9.83;100.00;102037.81;5125363;27;20035;-66
2023/05/02 04:30:03;;;;;;;18.98;4.63;;;;;;;9.75;100.00;102050.81;5122232;27;20080;-67
2023/05/02 04:32:28;;;;;;;17.35;4.53;;;;;;;9.70;100.00;102050.69;5124748;27;20093;-66
2023/05/02 04:34:54;;;;;;;16.90;4.40;;;;;;;9.67;100.00;102053.25;5122478;27;20059;-66
2023/05/02 04:37:20;;;;;;;16.55;4.32;;;;;;;9.59;100.00;102058.28;5123760;27;20050;-66
2023/05/02 04:39:45;;;;;;;17.58;4.28;;;;;;;9.56;100.00;102067.91;5123978;27;20051;-66
2023/05/02 04:42:10;;;;;;;17.83;3.90;;;;;;;9.57;100.00;102061.78;5121904;27;20058;-67
2023/05/02 04:44:36;;;;;;;14.27;3.70;;;;;;;9.54;100.00;102067.84;5125333;27;20030;-66
2023/05/02 04:47:01;;;;;;;14.07;3.75;;;;;;;9.53;100.00;102075.72;5121710;27;20467;-67
2023/05/02 04:49:26;;;;;;;15.38;3.85;;;;;;;9.52;100.00;102079.22;5124061;28;20041;-66
2023/05/02 04:51:52;;;;;;;14.52;3.58;;;;;;;9.50;100.00;102086.22;5123008;27;20035;-67
2023/05/02 04:54:17;;;;;;;12.90;3.50;;;;;;;9.37;100.00;102080.56;5122905;28;20023;-66
2023/05/02 04:56:43;;;;;;;17.80;3.70;;;;;;;9.25;100.00;102096.06;5124227;27;20416;-66
2023/05/02 04:59:08;;;;;;;14.93;3.58;;;;;;;9.20;100.00;102098.56;5121765;27;20386;-67
2023/05/02 05:01:34;;;;;;;15.80;3.60;;;;;;;9.25;100.00;102101.31;5125001;27;20031;-67
2023/05/02 05:03:59;;;;;;;14.35;3.65;;;;;;;9.23;100.00;102103.91;5121956;27;20027;-69
2023/05/02 05:06:25;;;;;;;16.02;3.60;;;;;;;9.25;100.00;102106.59;5128220;27;20063;-67
2023/05/02 05:08:50;;;;;;;14.75;3.47;;;;;;;9.29;100.00;102112.84;5127284;27;20030;-66
2023/05/02 05:11:16;;;;;;;13.88;3.70;;;;;;;9.26;100.00;102113.66;5126860;27;20042;-66
2023/05/02 05:13:41;;;;;;;14.02;3.70;;;;;;;9.22;100.00;102115.31;5128172;27;20035;-67
2023/05/02 05:16:07;;;;;;;19.65;3.90;;;;;;;9.29;100.00;102119.03;5125445;27;20028;-66
2023/05/02 05:18:39;;;;;;;13.55;3.78;;;;;;;9.33;100.00;102123.53;5125562;27;20023;-66
2023/05/02 05:21:06;;;;;;;14.30;3.78;;;;;;;9.38;100.00;102124.59;5125502;27;20100;-67
2023/05/02 05:23:31;;;;;;;17.63;3.88;;;;;;;9.17;100.00;102129.22;5128913;27;20037;-67
2023/05/02 05:25:56;;;;;;;16.55;3.65;;;;;;;9.15;100.00;102133.56;5126116;27;20027;-66
2023/05/02 05:28:22;;;;;;;14.75;3.70;;;;;;;9.20;100.00;102135.50;5127492;27;20113;-67
2023/05/02 05:30:47;;;;;;;16.35;3.67;;;;;;;9.27;100.00;102126.00;5127367;27;20026;-68
2023/05/02 05:33:13;;;;;;;17.15;3.70;;;;;;;9.38;100.00;102132.50;5124528;27;20083;-68
2023/05/02 05:35:39;;;;;;;17.67;3.70;;;;;;;9.45;100.00;102140.59;5128343;27;20039;-73
2023/05/02 05:38:05;;;;;;;12.43;3.20;;;;;;;9.56;100.00;102141.81;5123791;27;20531;-71
2023/05/02 05:40:30;;;;;;;15.98;3.35;;;;;;;9.60;100.00;102146.34;5128378;27;20059;-66
2023/05/02 05:42:56;;;;;;;15.32;3.63;;;;;;;9.61;100.00;102142.84;5126003;27;20112;-84
2023/05/02 05:45:21;;;;;;;15.30;3.40;;;;;;;9.57;100.00;102154.16;5124892;27;20035;-76
2023/05/02 05:47:46;;;;;;;14.77;3.30;;;;;;;9.56;100.00;102152.38;5135574;27;20501;-75
2023/05/02 05:50:12;;;;;;;12.75;3.22;;;;;;;9.57;100.00;102156.81;5136925;27;20027;-77
2023/05/02 05:52:37;;;;;;;13.40;3.20;;;;;;;9.51;100.00;102156.59;5136453;27;20442;-79
2023/05/02 05:55:03;;;;;;;16.25;3.50;;;;;;;9.53;100.00;102165.47;5133463;27;20085;-79
2023/05/02 05:57:28;;;;;;;13.57;3.30;;;;;;;9.49;100.00;102153.91;5136651;27;20049;-78
2023/05/02 05:59:54;;;;;;;16.48;3.42;;;;;;;9.49;100.00;102160.97;5135705;27;20106;-70
2023/05/02 06:02:19;;;;;;;15.95;3.67;;;;;;;9.52;100.00;102163.69;5136286;27;20031;-75
2023/05/02 06:04:47;;;;;;;15.35;3.40;;;;;;;9.55;100.00;102169.06;5135652;27;20378;-70
2023/05/02 06:07:13;;;;;;;12.38;3.30;;;;;;;9.57;100.00;102175.28;5135393;27;20470;-68
2023/05/02 06:09:38;;;;;;;13.00;3.35;;;;;;;9.70;100.00;102181.84;5135369;27;20102;-68
2023/05/02 06:12:03;;;;;;;15.63;3.20;;;;;;;9.76;100.00;102185.53;5133159;27;20038;-68
2023/05/02 06:14:29;;;;;;;14.48;3.25;;;;;;;9.75;100.00;102189.00;5135301;27;20028;-69
2023/05/02 06:16:58;;;;;;;16.55;3.33;;;;;;;9.87;100.00;102193.78;5134315;27;20038;-69
2023/05/02 06:19:23;;;;;;;12.27;3.08;;;;;;;9.86;100.00;102188.41;5132667;27;20031;-67
2023/05/02 06:21:48;;;;;;;15.10;3.10;;;;;;;9.83;100.00;102194.53;5135431;27;20031;-69
2023/05/02 06:24:14;;;;;;;14.65;3.50;;;;;;;9.75;100.00;102199.56;5135270;27;20027;-69
2023/05/02 06:26:39;;;;;;;13.52;3.05;;;;;;;9.74;100.00;102208.38;5135332;27;20023;-68
2023/05/02 06:29:05;;;;;;;14.65;3.50;;;;;;;9.75;100.00;102199.56;5135084;27;20110;-69
2023/05/02 06:31:30;;;;;;;17.35;3.55;;;;;;;9.76;100.00;102211.94;5135128;27;20019;-70
2023/05/02 06:33:55;;;;;;;16.17;3.40;;;;;;;9.90;100.00;102206.16;5134783;27;20138;-69
2023/05/02 06:36:21;;;;;;;15.05;3.40;;;;;;;9.98;100.00;102217.84;5135333;27;20462;-70
2023/05/02 06:38:46;;;;;;;16.48;3.45;;;;;;;9.95;100.00;102225.69;5134748;27;20022;-68
2023/05/02 06:41:16;;;;;;;16.65;3.50;;;;;;;9.94;100.00;102231.81;5135133;27;20035;-69
2023/05/02 06:43:41;;;;;;;17.98;3.70;;;;;;;9.93;100.00;102235.28;5135096;27;20043;-69
2023/05/02 06:46:07;;;;;;;17.98;3.90;;;;;;;10.06;100.00;102242.75;5134847;27;20137;-69
2023/05/02 06:48:34;;;;;;;18.48;3.72;;;;;;;10.33;100.00;102248.78;5134583;27;20019;-69
2023/05/02 06:51:00;;;;;;;16.95;3.75;;;;;;;10.60;100.00;102246.00;5136325;27;20032;-69
2023/05/02 06:53:25;;;;;;;16.42;3.63;;;;;;;10.73;100.00;102247.22;5134546;27;20171;-69
2023/05/02 06:55:50;;;;;;;18.83;4.13;;;;;;;10.84;99.22;102253.69;5134724;27;20031;-69
2023/05/02 06:58:16;;;;;;;16.65;3.60;;;;;;;10.86;98.07;102257.25;5133957;27;20039;-69
2023/05/02 07:00:41;;;;;;;19.73;3.75;;;;;;;10.96;97.35;102255.75;5134670;27;20027;-69
2023/05/02 07:03:07;;;;;;;18.88;3.75;;;;;;;11.03;94.40;102268.28;5134735;27;20042;-69
2023/05/02 07:05:32;;;;;;;18.55;4.00;;;;;;;11.18;93.04;102272.16;5134495;27;20030;-72
2023/05/02 07:07:57;;;;;;;17.77;3.78;;;;;;;11.32;91.77;102270.75;5134002;27;20031;-69
2023/05/02 07:10:22;;;;;;;18.83;3.60;;;;;;;11.44;91.50;102271.00;5134304;27;20023;-69
2023/05/02 07:12:48;;;;;;;20.33;3.90;;;;;;;11.70;90.85;102270.72;5134349;27;20114;-69
2023/05/02 07:15:15;;;;;;;16.95;3.80;;;;;;;11.80;89.04;102271.84;5133115;27;20031;-68
2023/05/02 07:17:41;;;;;;;18.25;3.88;;;;;;;11.86;86.50;102282.56;5134496;27;20444;-69
2023/05/02 07:20:07;;;;;;;17.92;3.90;;;;;;;12.04;83.19;102284.72;5133708;27;20046;-71
2023/05/02 07:22:32;;;;;;;17.38;3.70;;;;;;;12.13;82.27;102295.56;5133544;27;20034;-69
2023/05/02 07:24:59;;;;;;;18.15;3.50;;;;;;;12.02;79.74;102289.13;5134242;27;20054;-68
2023/05/02 07:27:25;;;;;;;17.95;3.80;;;;;;;11.88;79.35;102298.50;5133960;27;20020;-69
2023/05/02 07:29:50;;;;;;;19.27;3.88;;;;;;;11.78;79.34;102302.69;5133587;27;20025;-69
2023/05/02 07:32:16;;;;;;;19.13;3.80;;;;;;;11.74;79.30;102304.38;5133980;27;20039;-70
2023/05/02 07:34:41;;;;;;;15.98;3.65;;;;;;;11.75;79.22;102305.25;5133593;27;20046;-69
2023/05/02 07:37:06;;;;;;;16.77;3.85;;;;;;;11.73;78.18;102301.69;5133966;27;20031;-69
2023/05/02 07:39:32;;;;;;;19.10;3.80;;;;;;;11.61;79.55;102304.97;5133517;27;20028;-68
2023/05/02 07:41:58;;;;;;;18.90;3.90;;;;;;;11.64;79.36;102305.91;5133675;27;20491;-67
2023/05/02 07:44:23;;;;;;;19.02;3.85;;;;;;;11.79;78.20;102313.31;5133431;27;20374;-74
2023/05/02 07:46:48;;;;;;;17.63;4.07;;;;;;;11.86;77.05;102317.00;5133252;27;20474;-66
2023/05/02 07:49:14;;;;;;;19.25;4.25;;;;;;;11.98;77.05;102316.41;5133498;27;20108;-66
2023/05/02 07:51:39;;;;;;;17.70;4.00;;;;;;;12.06;77.11;102314.84;5133839;27;20362;-66
2023/05/02 07:54:18;;;;;;;21.52;4.50;;;;;;;12.01;78.47;102321.78;5132973;27;20534;-66
2023/05/02 07:56:44;;;;;;;18.25;4.35;;;;;;;11.84;77.23;102324.03;5130088;27;20026;-67
2023/05/02 07:59:10;;;;;;;19.70;4.47;;;;;;;11.59;79.73;102319.91;5133248;27;20072;-66
2023/05/02 08:01:35;;;;;;;21.75;4.95;;;;;;;11.37;81.64;102329.09;5133633;27;20115;-66
2023/05/02 08:04:01;;;;;;;21.52;4.97;;;;;;;11.18;82.25;102331.28;5133444;27;20122;-66
2023/05/02 08:06:27;;;;;;;20.60;4.50;;;;;;;11.04;80.05;102328.28;5124097;27;20074;-66
2023/05/02 08:08:53;;;;;;;19.13;4.13;;;;;;;10.93;80.22;102335.03;5123038;27;20486;-66
2023/05/02 08:11:19;;;;;;;21.80;5.07;;;;;;;10.87;79.64;102329.59;5125350;27;20032;-67
2023/05/02 08:13:44;;;;;;;19.30;4.72;;;;;;;10.94;78.96;102340.38;5121875;27;20031;-67
2023/05/02 08:16:10;;;;;;;20.90;4.68;;;;;;;10.96;78.67;102341.28;5125286;27;20419;-66
2023/05/02 08:18:35;;;;;;;19.98;4.30;;;;;;;11.16;78.54;102343.56;5121347;27;20027;-68
2023/05/02 08:21:01;;;;;;;25.33;4.70;;;;;;;11.24;77.07;102346.41;5123953;27;20023;-67
2023/05/02 08:23:26;;;;;;;21.70;4.68;;;;;;;11.25;75.14;102351.75;5123966;27;20524;-66
2023/05/02 08:25:51;;;;;;;18.58;4.28;;;;;;;11.33;76.64;102344.91;5121142;27;20398;-66
2023/05/02 08:28:17;;;;;;;19.33;4.00;;;;;;;11.43;75.58;102361.94;5115947;27;20115;-67
2023/05/02 08:30:44;;;;;;;20.25;4.38;;;;;;;11.57;75.19;102364.91;5122108;27;20055;-68
2023/05/02 08:33:09;;;;;;;18.63;4.20;;;;;;;11.81;72.99;102371.63;5124662;27;20031;-71
2023/05/02 08:35:35;;;;;;;18.67;4.28;;;;;;;12.08;71.23;102368.75;5122960;27;20027;-70
2023/05/02 08:38:00;;;;;;;18.65;4.30;;;;;;;12.23;69.58;102370.84;5123515;27;20027;-67
2023/05/02 08:40:26;;;;;;;18.95;4.05;;;;;;;12.31;67.67;102369.25;5123404;27;20035;-69
2023/05/02 08:42:53;;;;;;;19.13;4.07;;;;;;;12.56;66.71;102375.97;5122526;27;20111;-72
2023/05/02 08:45:18;;;;;;;17.67;4.20;;;;;;;13.03;66.71;102382.19;5124757;27;20035;-72
2023/05/02 08:47:45;;;;;;;19.60;4.18;;;;;;;13.24;64.25;102381.69;5121554;28;20027;-74
2023/05/02 08:50:11;;;;;;;18.08;4.13;;;;;;;13.47;61.72;102382.13;5125071;28;20090;-67
2023/05/02 08:52:37;;;;;;;17.08;3.88;;;;;;;13.54;60.43;102385.75;5122190;27;20071;-67
2023/05/02 08:55:05;;;;;;;19.75;3.67;;;;;;;13.68;59.17;102388.66;5123877;28;20488;-67
2023/05/02 08:57:31;;;;;;;15.93;3.58;;;;;;;13.80;58.40;102393.25;5123082;27;20493;-67
2023/05/02 08:59:57;;;;;;;17.40;3.70;;;;;;;13.88;57.36;102397.81;5121615;28;20031;-66
2023/05/02 09:02:50;;;;;;;18.48;3.95;;;;;;;14.07;57.71;102403.44;5124087;27;20027;-68
2023/05/02 09:05:19;;;;;;;17.92;3.70;;;;;;;14.41;57.00;102398.56;5121469;28;20019;-67
2023/05/02 09:07:48;;;;;;;17.38;3.60;;;;;;;14.30;55.50;102396.66;5121478;28;20023;-67
2023/05/02 09:10:14;;;;;;;20.23;4.30;;;;;;;14.08;56.51;102400.78;5121607;28;20497;-66
2023/05/02 09:12:40;;;;;;;16.48;4.35;;;;;;;14.69;54.75;102397.16;5124324;28;20032;-67
2023/05/02 09:15:16;;;;;;;16.98;3.70;;;;;;;15.77;55.48;102403.53;5122429;27;20462;-67
2023/05/02 09:17:46;;;;;;;15.02;3.40;;;;;;;16.84;49.39;102405.00;5124878;28;20032;-67
2023/05/02 09:20:13;;;;;;;18.40;3.90;;;;;;;16.62;50.03;102406.72;5121215;27;20024;-67
2023/05/02 09:22:47;;;;;;;15.45;3.15;;;;;;;17.55;46.54;102410.50;5124184;28;20056;-67
2023/05/02 09:25:13;;;;;;;15.18;3.28;;;;;;;17.23;44.89;102421.16;5121365;27;20035;-71
2023/05/02 09:27:52;;;;;;;14.80;3.50;;;;;;;16.81;48.19;102425.47;5124425;28;20023;-68
2023/05/02 09:30:25;;;;;;;16.00;3.33;;;;;;;16.11;47.35;102414.47;5124255;28;20605;-67
2023/05/02 09:32:53;;;;;;;17.33;3.45;;;;;;;15.79;48.44;102422.25;5120186;28;20514;-67
2023/05/02 09:35:25;;;;;;;15.77;3.40;;;;;;;15.00;49.90;102421.50;5124894;27;20050;-67
2023/05/02 09:37:55;;;;;;;12.73;3.42;;;;;;;14.64;51.26;102418.41;5121323;28;20436;-67
2023/05/02 09:40:22;;;;;;;16.05;3.50;;;;;;;14.52;51.51;102427.94;5124192;27;20132;-67
2023/05/02 09:42:47;;;;;;;16.58;3.50;;;;;;;14.51;52.42;102429.72;5120694;28;20028;-67
2023/05/02 09:45:24;;;;;;;14.73;3.25;;;;;;;14.65;52.99;102440.59;5123986;28;20430;-67
2023/05/02 09:47:50;;;;;;;17.50;3.75;;;;;;;14.64;52.50;102426.38;5121002;28;20036;-66
2023/05/02 09:50:45;;;;;;;15.75;3.50;;;;;;;17.13;50.67;102443.41;5120727;28;20115;-66
2023/05/02 09:53:10;;;;;;;15.82;3.60;;;;;;;19.12;44.18;102441.31;5109257;27;20166;-67
2023/05/02 09:55:36;;;;;;;13.77;3.50;;;;;;;20.07;39.75;102446.84;5125705;27;20106;-67
2023/05/02 09:58:02;;;;;;;14.65;3.42;;;;;;;19.79;40.25;102444.44;5126682;27;20050;-67
2023/05/02 10:00:43;;;;;;;15.23;3.33;;;;;;;18.50;42.76;102445.16;5125530;27;20042;-66
2023/05/02 10:03:09;;;;;;;12.55;3.53;;;;;;;17.87;42.89;102440.81;5125470;27;20522;-67
2023/05/02 10:05:37;;;;;;;16.13;3.50;;;;;;;19.95;41.43;102445.19;5126224;27;20024;-68
2023/05/02 10:08:05;;;;;;;16.80;3.60;;;;;;;21.50;38.24;102449.50;5125448;27;20098;-67
2023/05/02 10:10:32;;;;;;;16.40;3.72;;;;;;;22.98;35.73;102452.09;5127636;27;20019;-69
2023/05/02 10:12:58;;;;;;;15.20;3.55;;;;;;;23.80;31.90;102447.47;5126005;27;20078;-67
2023/05/02 10:15:28;;;;;;;14.13;3.30;;;;;;;23.90;31.69;102453.56;5128051;27;20059;-70
2023/05/02 10:17:56;;;;;;;16.42;3.58;;;;;;;22.89;32.35;102451.41;5124132;27;20494;-67
2023/05/02 10:20:25;;;;;;;18.02;3.97;;;;;;;23.00;33.30;102452.06;5127991;27;20031;-67
2023/05/02 10:22:52;;;;;;;16.35;4.10;;;;;;;22.16;34.52;102457.38;5123246;27;20059;-69
2023/05/02 10:25:18;;;;;;;17.83;4.40;;;;;;;19.97;36.47;102450.53;5126150;27;20036;-72
2023/05/02 10:27:44;;;;;;;18.00;4.10;;;;;;;18.77;39.61;102452.16;5126195;27;20079;-67
2023/05/02 10:30:12;;;;;;;16.83;3.75;;;;;;;17.60;41.28;102459.53;5124138;27;20031;-69
2023/05/02 10:32:39;;;;;;;17.55;3.80;;;;;;;17.08;43.58;102457.66;5123915;27;20039;-66
2023/05/02 10:35:05;;;;;;;16.35;3.78;;;;;;;16.95;43.50;102463.84;5126676;27;20047;-72
2023/05/02 10:37:33;;;;;;;17.95;4.03;;;;;;;17.35;42.65;102460.38;5124862;27;20038;-71
2023/05/02 10:40:00;;;;;;;16.52;3.90;;;;;;;19.38;40.55;102460.81;5125998;27;20106;-73
2023/05/02 10:42:26;;;;;;;18.02;3.80;;;;;;;20.19;38.25;102464.63;5125519;27;20163;-71
2023/05/02 10:44:51;;;;;;;15.02;3.60;;;;;;;20.90;36.38;102451.28;5125378;27;20028;-73
2023/05/02 10:47:19;;;;;;;17.17;3.88;;;;;;;21.41;36.87;102465.78;5126467;27;20168;-70
2023/05/02 10:49:51;;;;;;;16.42;3.42;;;;;;;22.12;34.67;102464.63;5123986;27;20020;-70
2023/05/02 10:52:30;;;;;;;14.88;3.55;;;;;;;23.46;33.54;102460.91;5126614;27;20458;-71
2023/05/02 10:55:19;;;;;;;14.68;3.63;;;;;;;25.79;31.14;102464.16;5125631;27;20031;-74
2023/05/02 10:57:59;;;;;;;17.02;3.60;;;;;;;25.53;30.37;102463.22;5122623;27;20453;-75
2023/05/02 11:00:35;;;;;;;13.60;3.42;;;;;;;24.08;30.39;102456.69;5125303;27;20023;-74
2023/05/02 11:03:01;;;;;;;14.85;3.42;;;;;;;22.51;30.85;102462.09;5125425;27;20466;-67
2023/05/02 11:05:27;;;;;;;13.63;3.40;;;;;;;22.29;31.45;102462.50;5123711;27;20480;-67
2023/05/02 11:08:21;;;;;;;14.85;3.40;;;;;;;21.06;34.34;102453.75;5125706;27;20089;-74
2023/05/02 11:10:47;;;;;;;19.65;3.75;;;;;;;19.33;36.14;102453.69;5102853;27;20466;-78
2023/05/02 11:13:12;;;;;;;13.63;3.10;;;;;;;18.74;36.66;102466.50;5125960;27;20027;-78
2023/05/02 11:15:41;;;;;;;14.60;3.30;;;;;;;18.37;37.53;102466.59;5122254;27;20385;-77